createdAt,value
2023-05-05T00:01:29.890Z,2.40
2023-05-05T00:03:57.584Z,3.78
2023-05-05T00:06:25.202Z,1.98
2023-05-05T00:08:52.785Z,5.72
2023-05-05T00:11:20.343Z,2.38
2023-05-05T00:13:49.346Z,3.22
2023-05-05T00:16:17.558Z,4.72
2023-05-05T00:18:45.585Z,2.20
2023-05-05T00:21:13.260Z,4.07
2023-05-05T00:23:41.919Z,3.70
2023-05-05T00:26:09.593Z,4.05
2023-05-05T00:28:37.292Z,4.75
2023-05-05T00:31:07.344Z,2.38
2023-05-05T00:33:35.047Z,3.22
2023-05-05T00:36:02.827Z,3.45
2023-05-05T00:38:30.528Z,3.38
2023-05-05T00:40:58.215Z,3.28
2023-05-05T00:43:25.947Z,2.58
2023-05-05T00:46:01.006Z,3.35
2023-05-05T00:48:31.583Z,2.88
2023-05-05T00:51:00.486Z,3.85
2023-05-05T00:53:28.368Z,3.70
2023-05-05T00:55:56.371Z,3.78
2023-05-05T00:58:24.186Z,2.95
2023-05-05T01:00:51.824Z,4.20
2023-05-05T01:03:19.500Z,3.83
2023-05-05T01:05:59.619Z,2.53
2023-05-05T01:08:43.605Z,3.22
2023-05-05T01:11:17.771Z,2.28
2023-05-05T01:13:53.733Z,2.90
2023-05-05T01:16:27.174Z,2.88
2023-05-05T01:19:00.831Z,3.67
2023-05-05T01:21:34.751Z,3.65
2023-05-05T01:24:23.230Z,3.33
2023-05-05T01:27:11.300Z,3.45
2023-05-05T01:29:52.202Z,2.70
2023-05-05T01:32:25.835Z,2.40
2023-05-05T01:34:58.680Z,3.05
2023-05-05T01:37:30.272Z,3.13
2023-05-05T01:40:05.169Z,2.90
2023-05-05T01:42:34.895Z,2.85
2023-05-05T01:45:08.038Z,4.93
2023-05-05T01:47:38.994Z,4.28
2023-05-05T01:50:09.385Z,2.70
2023-05-05T01:52:39.143Z,3.33
2023-05-05T01:55:08.864Z,4.95
2023-05-05T01:57:38.231Z,3.10
2023-05-05T02:00:09.684Z,5.18
2023-05-05T02:02:40.227Z,4.40
2023-05-05T02:05:08.500Z,5.43
2023-05-05T02:07:37.347Z,4.03
2023-05-05T02:10:08.013Z,3.00
2023-05-05T02:12:38.547Z,5.93
2023-05-05T02:15:07.700Z,3.17
2023-05-05T02:17:35.624Z,5.68
2023-05-05T02:20:06.182Z,5.28
2023-05-05T02:22:34.038Z,3.45
2023-05-05T02:25:01.663Z,3.08
2023-05-05T02:27:29.749Z,2.83
2023-05-05T02:30:02.791Z,4.97
2023-05-05T02:32:34.758Z,3.85
2023-05-05T02:35:11.711Z,5.35
2023-05-05T02:37:40.972Z,3.42
2023-05-05T02:40:11.431Z,3.35
2023-05-05T02:42:42.862Z,3.88
2023-05-05T02:45:16.270Z,4.38
2023-05-05T02:47:43.984Z,4.78
2023-05-05T02:50:13.363Z,4.82
2023-05-05T02:52:41.090Z,3.95
2023-05-05T02:55:09.516Z,4.65
2023-05-05T02:57:41.304Z,4.65
2023-05-05T03:00:15.940Z,3.10
2023-05-05T03:02:47.725Z,6.20
2023-05-05T03:10:22.231Z,5.55
2023-05-05T03:12:54.554Z,3.70
2023-05-05T03:15:26.352Z,4.78
2023-05-05T03:17:55.006Z,4.40
2023-05-05T03:20:24.566Z,3.15
2023-05-05T03:22:52.818Z,3.47
2023-05-05T03:25:20.429Z,4.03
2023-05-05T03:27:48.212Z,3.92
2023-05-05T03:30:16.108Z,2.70
2023-05-05T03:32:43.795Z,4.45
2023-05-05T03:35:11.903Z,3.63
2023-05-05T03:37:41.065Z,4.95
2023-05-05T03:40:09.936Z,3.78
2023-05-05T03:42:37.692Z,4.13
2023-05-05T03:45:05.976Z,4.03
2023-05-05T03:47:34.120Z,5.35
2023-05-05T03:50:01.783Z,4.15
2023-05-05T03:52:29.517Z,4.20
2023-05-05T03:55:00.033Z,3.30
2023-05-05T03:57:27.754Z,4.63
2023-05-05T03:59:56.010Z,4.60
2023-05-05T04:02:23.819Z,6.50
2023-05-05T04:04:51.575Z,7.68
2023-05-05T04:07:19.286Z,4.20
2023-05-05T04:09:46.953Z,5.25
2023-05-05T04:12:16.046Z,5.22
2023-05-05T04:14:43.626Z,7.78
2023-05-05T04:17:11.247Z,3.40
2023-05-05T04:19:38.822Z,5.75
2023-05-05T04:22:06.528Z,4.75
2023-05-05T04:24:34.264Z,4.28
2023-05-05T04:27:02.239Z,6.30
2023-05-05T04:29:31.148Z,7.05
2023-05-05T04:31:58.722Z,4.78
2023-05-05T04:34:26.383Z,5.82
2023-05-05T04:36:54.137Z,5.88
2023-05-05T04:39:21.998Z,7.40
2023-05-05T04:41:49.566Z,5.88
2023-05-05T04:44:17.226Z,7.40
2023-05-05T04:46:46.205Z,7.13
2023-05-05T04:49:13.881Z,5.47
2023-05-05T04:51:42.340Z,5.07
2023-05-05T04:54:10.136Z,7.93
2023-05-05T04:56:37.902Z,6.63
2023-05-05T04:59:05.936Z,8.68
2023-05-05T05:01:34.364Z,4.65
2023-05-05T05:04:05.119Z,5.60
2023-05-05T05:06:33.324Z,8.00
2023-05-05T05:09:00.991Z,5.30
2023-05-05T05:11:28.799Z,6.47
2023-05-05T05:13:56.703Z,8.48
2023-05-05T05:16:25.903Z,6.80
2023-05-05T05:18:53.510Z,8.65
2023-05-05T05:21:22.701Z,6.38
2023-05-05T05:23:50.347Z,5.60
2023-05-05T05:26:18.036Z,7.95
2023-05-05T05:28:45.677Z,7.00
2023-05-05T05:31:13.336Z,5.15
2023-05-05T05:33:40.998Z,8.55
2023-05-05T05:36:08.892Z,6.18
2023-05-05T05:38:37.905Z,6.93
2023-05-05T05:41:08.677Z,8.80
2023-05-05T05:43:36.302Z,7.15
2023-05-05T05:46:04.266Z,6.78
2023-05-05T05:48:32.314Z,4.95
2023-05-05T05:50:59.921Z,6.78
2023-05-05T05:53:27.549Z,4.68
2023-05-05T05:55:57.437Z,6.63
2023-05-05T05:58:25.122Z,6.75
2023-05-05T06:00:52.762Z,5.05
2023-05-05T06:03:20.600Z,4.60
2023-05-05T06:05:48.380Z,5.25
2023-05-05T06:08:16.093Z,4.45
2023-05-05T06:10:43.716Z,4.45
2023-05-05T06:13:12.929Z,5.32
2023-05-05T06:15:40.611Z,5.85
2023-05-05T06:18:08.316Z,4.88
2023-05-05T06:20:35.969Z,4.80
2023-05-05T06:23:03.513Z,5.05
2023-05-05T06:25:31.172Z,4.40
2023-05-05T06:27:58.788Z,6.72
2023-05-05T06:30:27.811Z,4.72
2023-05-05T06:32:55.704Z,6.63
2023-05-05T06:35:23.348Z,6.80
2023-05-05T06:37:50.980Z,4.50
2023-05-05T06:40:18.839Z,4.03
2023-05-05T06:42:46.417Z,4.90
2023-05-05T06:45:14.078Z,5.43
2023-05-05T06:47:44.156Z,4.15
2023-05-05T06:50:12.308Z,3.72
2023-05-05T06:52:39.964Z,4.40
2023-05-05T06:55:08.314Z,4.75
2023-05-05T06:57:36.044Z,6.13
2023-05-05T07:00:05.646Z,5.43
2023-05-05T07:02:33.778Z,3.03
2023-05-05T07:05:02.834Z,3.28
2023-05-05T07:07:31.738Z,5.28
2023-05-05T07:09:59.452Z,3.10
2023-05-05T07:12:30.356Z,4.63
2023-05-05T07:14:58.132Z,7.35
2023-05-05T07:17:25.890Z,4.25
2023-05-05T07:19:54.996Z,3.80
2023-05-05T07:22:24.196Z,4.22
2023-05-05T07:24:53.248Z,11.73
2023-05-05T07:27:21.507Z,10.00
2023-05-05T07:29:49.224Z,5.75
2023-05-05T07:32:17.015Z,15.10
2023-05-05T07:34:44.747Z,13.95
2023-05-05T07:37:12.368Z,19.73
2023-05-05T07:39:42.010Z,12.32
2023-05-05T07:42:09.698Z,21.10
2023-05-05T07:44:37.350Z,18.67
2023-05-05T07:47:05.026Z,14.77
2023-05-05T07:49:32.631Z,10.77
2023-05-05T07:52:00.313Z,9.70
2023-05-05T07:54:28.934Z,14.20
2023-05-05T07:56:58.347Z,11.20
2023-05-05T07:59:26.007Z,10.85
2023-05-05T08:01:54.818Z,10.73
2023-05-05T08:04:22.797Z,6.55
2023-05-05T08:06:50.472Z,11.75
2023-05-05T08:09:18.077Z,10.75
2023-05-05T08:11:45.726Z,8.23
2023-05-05T08:14:15.173Z,7.25
2023-05-05T08:16:42.883Z,12.30
2023-05-05T08:19:21.226Z,9.27
2023-05-05T08:21:56.129Z,9.35
2023-05-05T08:24:23.866Z,5.95
2023-05-05T08:26:51.497Z,8.88
2023-05-05T08:29:20.440Z,7.97
2023-05-05T08:31:48.124Z,6.85
2023-05-05T08:34:15.902Z,7.57
2023-05-05T08:36:43.626Z,9.27
2023-05-05T08:39:11.219Z,10.77
2023-05-05T08:41:38.859Z,5.82
2023-05-05T08:44:06.574Z,6.45
2023-05-05T08:46:37.541Z,9.23
2023-05-05T08:49:06.848Z,7.77
2023-05-05T08:51:42.248Z,7.10
2023-05-05T08:54:17.826Z,4.07
2023-05-05T08:56:47.838Z,4.70
2023-05-05T08:59:16.674Z,6.38
2023-05-05T09:01:46.129Z,5.05
2023-05-05T09:04:13.713Z,4.97
2023-05-05T09:06:41.475Z,6.63
2023-05-05T09:09:10.104Z,7.95
2023-05-05T09:11:38.871Z,4.15
2023-05-05T09:14:06.606Z,4.80
2023-05-05T09:16:34.363Z,7.28
2023-05-05T09:19:04.492Z,6.45
2023-05-05T09:21:33.122Z,4.68
2023-05-05T09:24:09.402Z,7.10
2023-05-05T09:26:39.080Z,4.45
2023-05-05T09:29:07.655Z,5.20
2023-05-05T09:31:37.185Z,6.57
2023-05-05T09:34:17.163Z,6.78
2023-05-05T09:36:47.732Z,5.85
2023-05-05T09:39:17.863Z,8.27
2023-05-05T09:41:46.913Z,4.63
2023-05-05T09:44:16.876Z,5.70
2023-05-05T09:46:52.046Z,7.30
2023-05-05T09:49:25.217Z,6.40
2023-05-05T09:51:53.678Z,4.90
2023-05-05T09:54:26.120Z,5.30
2023-05-05T09:56:54.579Z,2.40
2023-05-05T09:59:22.710Z,6.35
2023-05-05T10:01:51.262Z,6.88
2023-05-05T10:04:28.187Z,5.82
2023-05-05T10:06:56.742Z,4.15
2023-05-05T10:09:24.629Z,4.82
2023-05-05T10:11:53.134Z,4.97
2023-05-05T10:14:21.132Z,8.88
2023-05-05T10:16:51.631Z,3.63
2023-05-05T10:19:21.063Z,8.25
2023-05-05T10:21:51.529Z,3.75
2023-05-05T10:24:30.449Z,3.20
2023-05-05T10:26:59.834Z,4.45
2023-05-05T10:29:37.741Z,3.47
2023-05-05T10:32:33.424Z,2.30
2023-05-05T10:37:29.026Z,4.15
2023-05-05T10:39:57.466Z,7.50
2023-05-05T10:42:25.255Z,3.28
2023-05-05T10:44:53.500Z,4.05
2023-05-05T10:47:23.263Z,4.55
2023-05-05T10:49:56.623Z,4.10
2023-05-05T10:52:29.569Z,2.42
2023-05-05T10:55:06.220Z,3.80
2023-05-05T10:57:38.109Z,4.78
2023-05-05T11:02:34.073Z,3.50
2023-05-05T11:05:17.844Z,7.53
2023-05-05T11:07:49.225Z,9.45
2023-05-05T11:10:19.702Z,8.40
2023-05-05T11:13:20.200Z,5.93
2023-05-05T11:15:49.064Z,9.52
2023-05-05T11:18:35.777Z,9.05
2023-05-05T11:21:19.459Z,14.30
2023-05-05T11:23:50.040Z,8.15
2023-05-05T11:26:19.487Z,19.77
2023-05-05T11:29:01.871Z,14.90
2023-05-05T11:31:30.654Z,10.80
2023-05-05T11:34:29.310Z,16.02
2023-05-05T11:37:03.571Z,33.40
2023-05-05T11:39:41.985Z,20.70
2023-05-05T11:42:24.958Z,14.98
2023-05-05T11:44:53.174Z,23.23
2023-05-05T11:47:33.331Z,11.35
2023-05-05T11:50:18.021Z,7.38
2023-05-05T11:52:46.616Z,10.98
2023-05-05T11:55:21.163Z,9.88
2023-05-05T11:57:48.782Z,8.40
2023-05-05T12:00:17.635Z,9.73
2023-05-05T12:02:45.998Z,9.80
2023-05-05T12:05:20.647Z,12.02
